Time;durP1;ratioP1;P1;durP2;ratioP2;P2;SDS_P1;SDS_P2;PMS_P1;PMS_P2;Temp;Humidity;BMP_temperature;BMP_pressure;BME280_temperature;BME280_humidity;BME280_pressure;Samples;Min_cycle;Max_cycle;Signal;HPM_P1;HPM_P2
2022/03/07 00:01:59;;;;;;;51.25;33.20;;;;;;;;;;5052706;28;20049;-49
2022/03/07 00:04:25;;;;;;;41.58;28.30;;;;;;;;;;5053050;28;20067;-50
2022/03/07 00:06:51;;;;;;;45.33;29.02;;;;;;;;;;5052936;28;20060;-49
2022/03/07 00:09:17;;;;;;;48.05;31.33;;;;;;;;;;5052921;28;20021;-49
2022/03/07 00:11:44;;;;;;;37.97;26.65;;;;;;;;;;5053303;28;20031;-49
2022/03/07 00:14:10;;;;;;;46.30;29.98;;;;;;;;;;5057421;28;20033;-49
2022/03/07 00:16:36;;;;;;;37.45;25.23;;;;;;;;;;5054971;28;20033;-49
2022/03/07 00:19:02;;;;;;;45.83;30.33;;;;;;;;;;5056911;28;20025;-49
2022/03/07 00:21:28;;;;;;;46.40;31.77;;;;;;;;;;5056802;28;20028;-49
2022/03/07 00:23:54;;;;;;;50.50;34.55;;;;;;;;;;5056861;28;20434;-49
2022/03/07 00:26:21;;;;;;;51.75;32.10;;;;;;;;;;5057081;28;20021;-49
2022/03/07 00:28:48;;;;;;;53.20;33.45;;;;;;;;;;5056808;28;20025;-49
2022/03/07 00:31:17;;;;;;;50.13;32.08;;;;;;;;;;5057096;28;20029;-49
2022/03/07 00:33:43;;;;;;;52.80;32.75;;;;;;;;;;5056476;28;20040;-49
2022/03/07 00:36:09;;;;;;;48.00;30.88;;;;;;;;;;5056639;28;20446;-50
2022/03/07 00:38:35;;;;;;;54.25;34.50;;;;;;;;;;5056789;28;20384;-50
2022/03/07 00:41:01;;;;;;;52.17;33.25;;;;;;;;;;5056906;28;20075;-49
2022/03/07 00:43:27;;;;;;;47.40;31.27;;;;;;;;;;5056639;28;20021;-49
2022/03/07 00:45:54;;;;;;;47.20;30.50;;;;;;;;;;5056581;28;20419;-49
2022/03/07 00:48:20;;;;;;;48.28;32.13;;;;;;;;;;5056285;28;20074;-49
2022/03/07 00:50:47;;;;;;;48.42;32.22;;;;;;;;;;5056602;28;20029;-49
2022/03/07 00:53:14;;;;;;;50.97;32.75;;;;;;;;;;5056117;28;20040;-48
2022/03/07 00:55:40;;;;;;;52.90;32.95;;;;;;;;;;5056346;28;20040;-49
2022/03/07 00:58:09;;;;;;;52.33;32.65;;;;;;;;;;5056185;28;20025;-49
2022/03/07 01:00:36;;;;;;;48.35;31.27;;;;;;;;;;5056089;28;20142;-49
2022/03/07 01:03:02;;;;;;;46.53;30.23;;;;;;;;;;5056144;28;20037;-49
2022/03/07 01:05:28;;;;;;;51.83;33.03;;;;;;;;;;5056015;28;20049;-49
2022/03/07 01:07:54;;;;;;;49.38;32.38;;;;;;;;;;5056143;28;20448;-48
2022/03/07 01:10:20;;;;;;;58.95;36.13;;;;;;;;;;5056362;28;20346;-49
2022/03/07 01:12:46;;;;;;;55.53;33.55;;;;;;;;;;5055948;28;20033;-49
2022/03/07 01:15:14;;;;;;;51.75;32.90;;;;;;;;;;5038072;28;20032;-49
2022/03/07 01:17:41;;;;;;;46.78;29.80;;;;;;;;;;5055759;28;20162;-49
2022/03/07 01:20:07;;;;;;;46.40;30.65;;;;;;;;;;5056028;28;20449;-48
2022/03/07 01:22:34;;;;;;;46.00;29.95;;;;;;;;;;5055711;28;20370;-48
2022/03/07 01:25:00;;;;;;;40.10;27.17;;;;;;;;;;5055701;28;20025;-49
2022/03/07 01:27:26;;;;;;;46.85;29.00;;;;;;;;;;5055766;28;20029;-49
2022/03/07 01:29:52;;;;;;;43.45;28.00;;;;;;;;;;5055595;28;20052;-48
2022/03/07 01:32:18;;;;;;;41.92;28.10;;;;;;;;;;5055566;28;20393;-49
2022/03/07 01:34:44;;;;;;;39.30;27.00;;;;;;;;;;5055465;28;20040;-48
2022/03/07 01:37:10;;;;;;;38.63;27.10;;;;;;;;;;5055541;28;20480;-49
2022/03/07 01:39:36;;;;;;;37.92;25.52;;;;;;;;;;5055604;28;20107;-49
2022/03/07 01:42:03;;;;;;;41.88;28.25;;;;;;;;;;5055765;28;20032;-49
2022/03/07 01:44:29;;;;;;;40.45;27.58;;;;;;;;;;5055637;28;20032;-48
2022/03/07 01:46:57;;;;;;;46.95;29.65;;;;;;;;;;5055262;28;20020;-49
2022/03/07 01:49:24;;;;;;;43.30;29.45;;;;;;;;;;5053646;28;20523;-49
2022/03/07 01:51:50;;;;;;;47.20;31.02;;;;;;;;;;5055322;28;20079;-49
2022/03/07 01:54:17;;;;;;;44.40;29.65;;;;;;;;;;5054995;28;20041;-49
2022/03/07 01:56:45;;;;;;;39.75;26.75;;;;;;;;;;5055220;28;20495;-49
2022/03/07 01:59:16;;;;;;;40.95;27.50;;;;;;;;;;5055022;28;20037;-49
2022/03/07 02:01:43;;;;;;;41.25;28.50;;;;;;;;;;5054887;28;20049;-49
2022/03/07 02:04:10;;;;;;;43.42;27.85;;;;;;;;;;5055189;28;20166;-48
2022/03/07 02:06:36;;;;;;;32.92;23.27;;;;;;;;;;5054867;28;20599;-48
2022/03/07 02:09:02;;;;;;;34.90;24.02;;;;;;;;;;5054962;28;20134;-49
2022/03/07 02:11:29;;;;;;;37.65;25.35;;;;;;;;;;5054863;28;20096;-49
2022/03/07 02:13:55;;;;;;;34.20;24.55;;;;;;;;;;5054655;28;20029;-49
2022/03/07 02:16:21;;;;;;;37.10;25.40;;;;;;;;;;5037016;28;20036;-49
2022/03/07 02:18:47;;;;;;;41.75;27.23;;;;;;;;;;5054863;28;20143;-49
2022/03/07 02:21:15;;;;;;;35.67;24.13;;;;;;;;;;5054788;28;20112;-48
2022/03/07 02:23:42;;;;;;;37.78;24.85;;;;;;;;;;5054616;28;20021;-49
2022/03/07 02:26:12;;;;;;;38.75;25.08;;;;;;;;;;5054489;28;20108;-49
2022/03/07 02:28:44;;;;;;;44.53;28.85;;;;;;;;;;5054579;28;20021;-49
2022/03/07 02:31:11;;;;;;;45.70;30.52;;;;;;;;;;5054729;28;20169;-49
2022/03/07 02:33:37;;;;;;;49.78;31.23;;;;;;;;;;5054300;28;20098;-49
2022/03/07 02:36:04;;;;;;;43.75;30.40;;;;;;;;;;5053805;28;20022;-49
2022/03/07 02:38:30;;;;;;;39.72;26.75;;;;;;;;;;5054246;28;20032;-51
2022/03/07 02:40:56;;;;;;;32.15;23.20;;;;;;;;;;5054226;28;20021;-48
2022/03/07 02:43:22;;;;;;;34.90;23.73;;;;;;;;;;5054675;28;20078;-48
2022/03/07 02:45:48;;;;;;;31.70;22.50;;;;;;;;;;5054183;28;20492;-48
2022/03/07 02:48:18;;;;;;;35.65;23.60;;;;;;;;;;5054051;28;20495;-48
2022/03/07 02:50:45;;;;;;;31.10;22.02;;;;;;;;;;5054117;28;20025;-48
2022/03/07 02:53:11;;;;;;;36.22;23.90;;;;;;;;;;5053845;28;20033;-48
2022/03/07 02:55:37;;;;;;;30.98;22.55;;;;;;;;;;5054462;28;20025;-50
2022/03/07 02:58:04;;;;;;;31.65;22.00;;;;;;;;;;5053873;28;20031;-50
2022/03/07 03:00:30;;;;;;;30.40;20.98;;;;;;;;;;5053815;28;20029;-49
2022/03/07 03:02:56;;;;;;;30.60;21.08;;;;;;;;;;5054054;28;20052;-50
2022/03/07 03:05:25;;;;;;;28.50;20.30;;;;;;;;;;5054050;28;20084;-49
2022/03/07 03:07:51;;;;;;;30.27;20.88;;;;;;;;;;5053883;28;20027;-49
2022/03/07 03:10:18;;;;;;;29.55;21.65;;;;;;;;;;5053690;28;20043;-49
2022/03/07 03:12:44;;;;;;;35.58;23.73;;;;;;;;;;5053589;28;20507;-48
2022/03/07 03:15:11;;;;;;;36.10;23.92;;;;;;;;;;5053929;28;20427;-49
2022/03/07 03:17:40;;;;;;;33.85;22.17;;;;;;;;;;5053576;28;20025;-49
2022/03/07 03:20:07;;;;;;;30.15;21.52;;;;;;;;;;5053676;28;20024;-51
2022/03/07 03:22:34;;;;;;;33.20;21.67;;;;;;;;;;5053735;28;20043;-49
2022/03/07 03:25:00;;;;;;;31.08;21.25;;;;;;;;;;5053626;28;20104;-48
2022/03/07 03:27:26;;;;;;;35.78;23.10;;;;;;;;;;5053958;28;20043;-49
2022/03/07 03:29:52;;;;;;;30.38;21.35;;;;;;;;;;5053443;28;20481;-48
2022/03/07 03:32:18;;;;;;;30.70;20.27;;;;;;;;;;5053458;28;20079;-50
2022/03/07 03:34:46;;;;;;;30.52;20.67;;;;;;;;;;5053322;28;20040;-50
2022/03/07 03:37:12;;;;;;;28.02;18.95;;;;;;;;;;5053590;28;20029;-48
2022/03/07 03:39:38;;;;;;;31.73;19.48;;;;;;;;;;5053405;28;20477;-49
2022/03/07 03:42:05;;;;;;;26.52;18.98;;;;;;;;;;5053530;28;20021;-49
2022/03/07 03:44:31;;;;;;;26.30;18.92;;;;;;;;;;5053342;28;20100;-49
2022/03/07 03:46:58;;;;;;;26.85;17.52;;;;;;;;;;5052368;28;20024;-49
2022/03/07 03:49:24;;;;;;;23.80;17.88;;;;;;;;;;5053391;28;20021;-51
2022/03/07 03:51:50;;;;;;;24.35;16.65;;;;;;;;;;5053598;28;20025;-50
2022/03/07 03:54:16;;;;;;;24.58;17.75;;;;;;;;;;5052963;28;20037;-49
2022/03/07 03:56:42;;;;;;;24.55;17.08;;;;;;;;;;5053061;28;20170;-51
2022/03/07 03:59:08;;;;;;;24.23;17.10;;;;;;;;;;5053270;28;20154;-49
2022/03/07 04:01:34;;;;;;;23.00;16.35;;;;;;;;;;5052791;28;20044;-50
2022/03/07 04:04:00;;;;;;;26.88;18.42;;;;;;;;;;5053077;28;20477;-50
2022/03/07 04:06:26;;;;;;;22.17;16.25;;;;;;;;;;5053223;28;20099;-49
2022/03/07 04:09:08;;;;;;;24.27;16.65;;;;;;;;;;5053121;28;20036;-49
2022/03/07 04:11:38;;;;;;;28.20;17.90;;;;;;;;;;5053128;28;20041;-48
2022/03/07 04:14:08;;;;;;;27.40;18.63;;;;;;;;;;5052863;28;20090;-49
2022/03/07 04:16:38;;;;;;;27.50;17.98;;;;;;;;;;5053213;28;20029;-50
2022/03/07 04:19:08;;;;;;;27.42;18.38;;;;;;;;;;5053172;28;20028;-49
2022/03/07 04:21:34;;;;;;;27.20;17.42;;;;;;;;;;5052897;28;20071;-50
2022/03/07 04:24:01;;;;;;;28.88;19.02;;;;;;;;;;5052839;28;20487;-48
2022/03/07 04:26:27;;;;;;;30.88;19.60;;;;;;;;;;5052927;28;20021;-48
2022/03/07 04:28:53;;;;;;;35.88;21.88;;;;;;;;;;5053048;28;20025;-49
2022/03/07 04:31:19;;;;;;;31.17;21.27;;;;;;;;;;5053088;28;20469;-49
2022/03/07 04:33:45;;;;;;;36.13;25.27;;;;;;;;;;5052902;28;20115;-49
2022/03/07 04:36:11;;;;;;;38.00;23.95;;;;;;;;;;5052928;28;20029;-50
2022/03/07 04:38:37;;;;;;;39.78;25.95;;;;;;;;;;5052802;28;20029;-49
2022/03/07 04:41:03;;;;;;;36.17;24.15;;;;;;;;;;5052716;28;20028;-49
2022/03/07 04:43:29;;;;;;;34.97;24.27;;;;;;;;;;5052633;28;20032;-49
2022/03/07 04:45:58;;;;;;;37.17;25.10;;;;;;;;;;5052939;28;20048;-48
2022/03/07 04:48:25;;;;;;;39.17;24.83;;;;;;;;;;5052804;28;20036;-48
2022/03/07 04:50:52;;;;;;;40.45;25.33;;;;;;;;;;5052818;28;20017;-48
2022/03/07 04:53:18;;;;;;;45.97;30.45;;;;;;;;;;5052474;28;20064;-49
2022/03/07 04:55:44;;;;;;;42.65;27.00;;;;;;;;;;5052612;28;20483;-49
2022/03/07 04:58:10;;;;;;;41.60;26.55;;;;;;;;;;5053403;28;20069;-49
2022/03/07 05:00:36;;;;;;;48.63;30.55;;;;;;;;;;5055968;28;20029;-49
2022/03/07 05:03:02;;;;;;;47.53;26.88;;;;;;;;;;5055982;28;20036;-48
2022/03/07 05:05:28;;;;;;;39.75;26.58;;;;;;;;;;5056071;28;20048;-48
2022/03/07 05:07:54;;;;;;;49.35;32.08;;;;;;;;;;5056140;28;20024;-50
2022/03/07 05:10:20;;;;;;;48.55;29.40;;;;;;;;;;5056171;28;20048;-49
2022/03/07 05:12:47;;;;;;;47.13;28.42;;;;;;;;;;5055972;28;20025;-48
2022/03/07 05:15:13;;;;;;;48.92;29.17;;;;;;;;;;5055804;28;20028;-49
2022/03/07 05:17:42;;;;;;;50.70;30.80;;;;;;;;;;5056050;28;20381;-48
2022/03/07 05:20:09;;;;;;;46.75;29.15;;;;;;;;;;5054588;28;20028;-48
2022/03/07 05:22:35;;;;;;;47.42;29.25;;;;;;;;;;5056064;28;20017;-49
2022/03/07 05:25:01;;;;;;;50.67;29.40;;;;;;;;;;5055578;28;20531;-49
2022/03/07 05:27:30;;;;;;;47.60;29.52;;;;;;;;;;5053749;28;20116;-48
2022/03/07 05:29:56;;;;;;;56.22;33.72;;;;;;;;;;5055320;28;20039;-49
2022/03/07 05:32:22;;;;;;;64.00;37.72;;;;;;;;;;5055871;28;20116;-50
2022/03/07 05:34:48;;;;;;;76.72;41.88;;;;;;;;;;5055424;28;20120;-49
2022/03/07 05:37:14;;;;;;;65.30;36.88;;;;;;;;;;5055497;28;20028;-49
2022/03/07 05:39:40;;;;;;;62.72;34.15;;;;;;;;;;5055656;28;20037;-48
2022/03/07 05:42:06;;;;;;;58.72;34.92;;;;;;;;;;5055424;28;20018;-48
2022/03/07 05:44:32;;;;;;;56.30;32.97;;;;;;;;;;5055540;28;20029;-48
2022/03/07 05:46:59;;;;;;;59.92;35.15;;;;;;;;;;5055725;28;20381;-48
2022/03/07 05:49:25;;;;;;;53.42;32.83;;;;;;;;;;5055290;28;20029;-48
2022/03/07 05:51:51;;;;;;;55.70;34.78;;;;;;;;;;5055372;28;20025;-49
2022/03/07 05:54:17;;;;;;;61.55;35.83;;;;;;;;;;5055043;28;20037;-50
2022/03/07 05:56:43;;;;;;;60.25;33.97;;;;;;;;;;5055147;28;20028;-48
2022/03/07 05:59:09;;;;;;;46.95;29.77;;;;;;;;;;5055594;28;20108;-50
2022/03/07 06:01:35;;;;;;;50.13;30.58;;;;;;;;;;5054976;28;20041;-50
2022/03/07 06:04:01;;;;;;;54.45;32.97;;;;;;;;;;5055056;28;20021;-49
2022/03/07 06:06:27;;;;;;;53.92;31.70;;;;;;;;;;5055055;28;20021;-49
2022/03/07 06:08:54;;;;;;;48.33;31.58;;;;;;;;;;5054904;28;20071;-48
2022/03/07 06:11:20;;;;;;;45.05;28.25;;;;;;;;;;5054076;28;20017;-49
2022/03/07 06:13:46;;;;;;;41.80;27.15;;;;;;;;;;5054849;28;20055;-48
2022/03/07 06:16:12;;;;;;;42.22;27.85;;;;;;;;;;5054730;28;20536;-48
2022/03/07 06:18:38;;;;;;;49.80;28.67;;;;;;;;;;5054660;28;20117;-48
2022/03/07 06:21:05;;;;;;;45.53;28.20;;;;;;;;;;5055077;28;20021;-47
2022/03/07 06:23:31;;;;;;;46.22;29.85;;;;;;;;;;5054608;28;20025;-49
2022/03/07 06:25:58;;;;;;;46.35;29.73;;;;;;;;;;5054635;28;20025;-50
2022/03/07 06:28:24;;;;;;;49.00;28.35;;;;;;;;;;5055118;28;20074;-49
2022/03/07 06:30:50;;;;;;;44.80;27.63;;;;;;;;;;5054503;28;20112;-48
2022/03/07 06:33:16;;;;;;;43.70;29.92;;;;;;;;;;5054319;28;20511;-49
2022/03/07 06:35:43;;;;;;;42.65;28.55;;;;;;;;;;5054443;28;20025;-52
2022/03/07 06:38:09;;;;;;;41.10;27.70;;;;;;;;;;5054375;28;20031;-49
2022/03/07 06:40:35;;;;;;;40.13;26.55;;;;;;;;;;5053193;28;20025;-48
2022/03/07 06:43:01;;;;;;;44.30;27.33;;;;;;;;;;5054310;28;20021;-50
2022/03/07 06:45:28;;;;;;;42.70;26.83;;;;;;;;;;5054036;28;20036;-50
2022/03/07 06:47:57;;;;;;;45.63;28.20;;;;;;;;;;5054332;28;20033;-49
2022/03/07 06:50:23;;;;;;;56.08;30.50;;;;;;;;;;5054093;28;20058;-48
2022/03/07 06:52:49;;;;;;;65.70;36.67;;;;;;;;;;5053856;28;20021;-48
2022/03/07 06:55:15;;;;;;;70.43;38.03;;;;;;;;;;5053983;28;20070;-48
2022/03/07 06:57:42;;;;;;;62.70;35.95;;;;;;;;;;5053934;28;20103;-48
2022/03/07 07:00:13;;;;;;;48.42;31.17;;;;;;;;;;5053823;28;20032;-48
2022/03/07 07:02:40;;;;;;;53.90;33.10;;;;;;;;;;5053668;28;20448;-49
2022/03/07 07:05:06;;;;;;;54.35;30.92;;;;;;;;;;5053937;28;20029;-48
2022/03/07 07:07:32;;;;;;;41.58;27.30;;;;;;;;;;5053678;28;20028;-48
2022/03/07 07:09:59;;;;;;;41.88;26.90;;;;;;;;;;5052399;28;20117;-49
2022/03/07 07:12:25;;;;;;;39.17;26.65;;;;;;;;;;5053717;28;20072;-48
2022/03/07 07:14:51;;;;;;;44.50;29.55;;;;;;;;;;5053435;28;20047;-49
2022/03/07 07:17:17;;;;;;;50.97;32.15;;;;;;;;;;5053703;28;20025;-49
2022/03/07 07:19:44;;;;;;;44.13;28.75;;;;;;;;;;5053620;28;20029;-47
2022/03/07 07:22:10;;;;;;;45.25;29.08;;;;;;;;;;5053435;28;20018;-47
2022/03/07 07:24:36;;;;;;;55.53;34.33;;;;;;;;;;5053407;28;20173;-47
2022/03/07 07:27:02;;;;;;;53.85;33.03;;;;;;;;;;5053434;28;20480;-47
2022/03/07 07:29:29;;;;;;;57.83;33.75;;;;;;;;;;5053378;28;20024;-49
2022/03/07 07:31:55;;;;;;;52.33;33.13;;;;;;;;;;5053614;28;20488;-48
2022/03/07 07:34:21;;;;;;;53.50;32.63;;;;;;;;;;5053374;28;20052;-50
2022/03/07 07:36:48;;;;;;;45.63;28.17;;;;;;;;;;5069200;28;20023;-49
2022/03/07 07:39:14;;;;;;;44.78;25.95;;;;;;;;;;5072661;28;20564;-48
2022/03/07 07:41:40;;;;;;;51.83;29.38;;;;;;;;;;5072770;28;20032;-49
2022/03/07 07:44:07;;;;;;;47.55;28.63;;;;;;;;;;5072791;28;20031;-49
2022/03/07 07:46:35;;;;;;;42.58;27.83;;;;;;;;;;5072692;28;20021;-50
2022/03/07 07:49:01;;;;;;;49.47;29.73;;;;;;;;;;5072897;28;20029;-49
2022/03/07 07:51:27;;;;;;;44.97;27.98;;;;;;;;;;5072653;28;20450;-48
2022/03/07 07:53:53;;;;;;;41.40;26.75;;;;;;;;;;5072464;28;20021;-48
2022/03/07 07:56:19;;;;;;;38.42;24.95;;;;;;;;;;5072529;28;20066;-48
2022/03/07 07:58:45;;;;;;;39.28;24.02;;;;;;;;;;5072546;28;20051;-49
2022/03/07 08:01:11;;;;;;;40.70;25.55;;;;;;;;;;5072453;28;20040;-50
2022/03/07 08:03:37;;;;;;;42.45;24.25;;;;;;;;;;5072899;28;20044;-49
2022/03/07 08:06:04;;;;;;;41.60;25.08;;;;;;;;;;5072801;28;20372;-50
2022/03/07 08:08:30;;;;;;;38.85;24.75;;;;;;;;;;5069792;28;20024;-49
2022/03/07 08:10:56;;;;;;;41.00;24.35;;;;;;;;;;5046404;28;20029;-48
2022/03/07 08:13:22;;;;;;;42.92;24.90;;;;;;;;;;5040626;28;20585;-49
2022/03/07 08:15:48;;;;;;;46.05;27.52;;;;;;;;;;5040341;28;20025;-48
2022/03/07 08:18:14;;;;;;;51.40;30.05;;;;;;;;;;5040242;28;20016;-49
2022/03/07 08:20:41;;;;;;;79.50;41.58;;;;;;;;;;5040418;28;20435;-47
2022/03/07 08:23:07;;;;;;;74.93;40.13;;;;;;;;;;5040539;28;20029;-46
2022/03/07 08:25:34;;;;;;;51.05;28.58;;;;;;;;;;5040296;28;20139;-46
2022/03/07 08:28:00;;;;;;;39.08;24.85;;;;;;;;;;5040166;28;20032;-47
2022/03/07 08:30:27;;;;;;;50.03;27.75;;;;;;;;;;5039806;28;20044;-47
2022/03/07 08:32:53;;;;;;;44.00;26.95;;;;;;;;;;5041477;28;20078;-46
2022/03/07 08:35:19;;;;;;;48.45;28.00;;;;;;;;;;5044380;28;20029;-46
2022/03/07 08:37:46;;;;;;;47.95;27.27;;;;;;;;;;5043823;28;20080;-47
2022/03/07 08:40:13;;;;;;;51.08;28.40;;;;;;;;;;5043737;28;20032;-47
2022/03/07 08:42:40;;;;;;;50.65;29.08;;;;;;;;;;5044139;28;20035;-48
2022/03/07 08:45:07;;;;;;;50.33;28.27;;;;;;;;;;5044064;28;20044;-46
2022/03/07 08:47:34;;;;;;;45.05;27.02;;;;;;;;;;5043614;28;20028;-47
2022/03/07 08:50:00;;;;;;;47.65;28.90;;;;;;;;;;5044693;28;20024;-50
2022/03/07 08:52:27;;;;;;;46.38;28.88;;;;;;;;;;5043752;28;20021;-47
2022/03/07 08:54:53;;;;;;;50.15;29.63;;;;;;;;;;5043248;28;20064;-46
2022/03/07 08:57:19;;;;;;;44.92;29.08;;;;;;;;;;5043486;28;20025;-47
2022/03/07 08:59:45;;;;;;;45.25;27.83;;;;;;;;;;5036471;28;20078;-47
2022/03/07 09:02:12;;;;;;;43.90;27.00;;;;;;;;;;5043380;28;20080;-47
2022/03/07 09:04:40;;;;;;;37.83;24.55;;;;;;;;;;5043199;28;20161;-47
2022/03/07 09:07:09;;;;;;;38.92;25.45;;;;;;;;;;5044549;28;20489;-47
2022/03/07 09:09:43;;;;;;;45.53;26.45;;;;;;;;;;5044507;28;20037;-46
2022/03/07 09:12:09;;;;;;;44.10;29.10;;;;;;;;;;5043255;28;20029;-48
2022/03/07 09:14:35;;;;;;;46.25;29.20;;;;;;;;;;5042926;28;20083;-46
2022/03/07 09:17:01;;;;;;;45.42;28.05;;;;;;;;;;5044156;28;20017;-47
2022/03/07 09:19:28;;;;;;;44.40;26.83;;;;;;;;;;5043591;28;20103;-48
2022/03/07 09:21:54;;;;;;;41.70;26.50;;;;;;;;;;5043065;28;20026;-48
2022/03/07 09:24:20;;;;;;;37.83;23.55;;;;;;;;;;5043150;28;20029;-45
2022/03/07 09:26:46;;;;;;;38.75;24.80;;;;;;;;;;5042936;28;20064;-50
2022/03/07 09:29:13;;;;;;;39.80;25.50;;;;;;;;;;5042805;28;20020;-46
2022/03/07 09:31:39;;;;;;;42.50;26.05;;;;;;;;;;5042996;28;20512;-49
2022/03/07 09:34:06;;;;;;;39.00;23.92;;;;;;;;;;5042984;28;20397;-48
2022/03/07 09:36:32;;;;;;;38.53;25.27;;;;;;;;;;5042728;28;20551;-46
2022/03/07 09:38:58;;;;;;;35.47;23.58;;;;;;;;;;5042895;28;20568;-46
2022/03/07 09:41:25;;;;;;;36.63;24.05;;;;;;;;;;5043180;28;20029;-47
2022/03/07 09:43:51;;;;;;;35.40;23.27;;;;;;;;;;5042668;28;20044;-47
2022/03/07 09:46:17;;;;;;;37.17;23.27;;;;;;;;;;5042429;28;20508;-48
2022/03/07 09:48:43;;;;;;;34.53;24.23;;;;;;;;;;5042481;28;20051;-47
2022/03/07 09:51:10;;;;;;;34.95;22.77;;;;;;;;;;5043474;28;20338;-48
2022/03/07 09:53:36;;;;;;;36.90;24.02;;;;;;;;;;5042432;28;20068;-48
2022/03/07 09:56:02;;;;;;;34.70;23.58;;;;;;;;;;5042230;28;20071;-47
2022/03/07 09:58:28;;;;;;;37.70;24.30;;;;;;;;;;5042159;28;20373;-47
2022/03/07 10:01:04;;;;;;;37.53;24.02;;;;;;;;;;5042251;28;20049;-46
2022/03/07 10:03:30;;;;;;;36.75;25.33;;;;;;;;;;5042760;28;20037;-48
2022/03/07 10:06:01;;;;;;;34.92;23.85;;;;;;;;;;5025546;28;20033;-46
2022/03/07 10:08:28;;;;;;;39.47;24.02;;;;;;;;;;5042295;28;20059;-46
2022/03/07 10:10:55;;;;;;;41.20;25.33;;;;;;;;;;5042053;28;20110;-47
2022/03/07 10:13:22;;;;;;;41.05;26.75;;;;;;;;;;5041924;28;20382;-48
2022/03/07 10:15:59;;;;;;;42.40;24.48;;;;;;;;;;5043284;28;20582;-47
2022/03/07 10:18:26;;;;;;;38.75;22.92;;;;;;;;;;5042197;28;20027;-46
2022/03/07 10:20:53;;;;;;;35.83;23.77;;;;;;;;;;5042007;28;20025;-48
2022/03/07 10:23:20;;;;;;;39.97;24.42;;;;;;;;;;5041856;28;20017;-46
2022/03/07 10:25:46;;;;;;;37.63;22.98;;;;;;;;;;5041949;28;20459;-46
2022/03/07 10:28:13;;;;;;;35.55;22.63;;;;;;;;;;5041878;28;20028;-46
2022/03/07 10:30:40;;;;;;;36.05;23.52;;;;;;;;;;5042769;28;20367;-47
2022/03/07 10:33:08;;;;;;;34.97;21.45;;;;;;;;;;5041712;28;20103;-48
2022/03/07 10:35:40;;;;;;;36.90;24.30;;;;;;;;;;5041667;28;20075;-48
2022/03/07 10:38:09;;;;;;;34.72;22.10;;;;;;;;;;5041680;28;20125;-46
2022/03/07 10:40:37;;;;;;;34.35;23.38;;;;;;;;;;5042200;28;20032;-46
2022/03/07 10:43:06;;;;;;;36.85;23.23;;;;;;;;;;5041534;28;20419;-47
2022/03/07 10:45:32;;;;;;;37.00;22.58;;;;;;;;;;5041548;28;20425;-46
2022/03/07 10:48:00;;;;;;;37.83;22.75;;;;;;;;;;5041513;28;20566;-47
2022/03/07 10:50:27;;;;;;;30.02;20.75;;;;;;;;;;5041503;28;20024;-47
2022/03/07 10:52:58;;;;;;;31.00;21.15;;;;;;;;;;5042671;28;20472;-48
2022/03/07 10:55:25;;;;;;;32.33;21.77;;;;;;;;;;5041206;28;20039;-48
2022/03/07 10:57:52;;;;;;;30.52;20.15;;;;;;;;;;5041257;28;20446;-47
2022/03/07 11:00:22;;;;;;;34.53;22.20;;;;;;;;;;5041293;28;20055;-47
2022/03/07 11:02:49;;;;;;;28.55;19.20;;;;;;;;;;5042242;28;20407;-48
2022/03/07 11:05:17;;;;;;;27.25;18.95;;;;;;;;;;5040991;28;20110;-48
2022/03/07 11:07:44;;;;;;;29.35;18.85;;;;;;;;;;5041076;28;20025;-47
2022/03/07 11:10:11;;;;;;;26.23;17.98;;;;;;;;;;5040855;28;20021;-47
2022/03/07 11:12:38;;;;;;;23.50;16.40;;;;;;;;;;5040969;28;20392;-47
2022/03/07 11:15:08;;;;;;;28.50;17.17;;;;;;;;;;5041001;28;20844;-46
2022/03/07 11:17:44;;;;;;;29.50;17.08;;;;;;;;;;5041003;28;20070;-47
2022/03/07 11:20:12;;;;;;;24.65;17.20;;;;;;;;;;5040882;28;20025;-45
2022/03/07 11:22:41;;;;;;;25.55;16.67;;;;;;;;;;5040709;28;20362;-48
2022/03/07 11:25:07;;;;;;;23.80;17.35;;;;;;;;;;5040558;28;20042;-45
2022/03/07 11:27:34;;;;;;;28.13;17.92;;;;;;;;;;5040651;28;20552;-50
2022/03/07 11:30:00;;;;;;;26.45;16.45;;;;;;;;;;5040748;28;20773;-48
2022/03/07 11:32:26;;;;;;;29.17;17.55;;;;;;;;;;5040546;28;20060;-46
2022/03/07 11:34:57;;;;;;;29.02;17.25;;;;;;;;;;5040928;28;20478;-47
2022/03/07 11:37:27;;;;;;;30.27;17.70;;;;;;;;;;5040573;28;20111;-48
2022/03/07 11:39:58;;;;;;;26.80;18.05;;;;;;;;;;5040607;28;20040;-47
2022/03/07 11:42:24;;;;;;;;;;;;;;;;;;5041225;28;20144;-45
2022/03/07 11:44:50;;;;;;;23.55;16.48;;;;;;;;;;5041543;28;20003;-48
2022/03/07 11:47:22;;;;;;;23.67;16.65;;;;;;;;;;5040717;28;20062;-47
2022/03/07 11:49:59;;;;;;;24.95;16.58;;;;;;;;;;5040483;28;20017;-47
2022/03/07 11:52:25;;;;;;;28.63;16.75;;;;;;;;;;5041910;28;20081;-49
2022/03/07 11:54:53;;;;;;;24.08;16.67;;;;;;;;;;5040481;28;20051;-46
2022/03/07 11:57:31;;;;;;;24.95;15.30;;;;;;;;;;5040653;28;20415;-46
2022/03/07 11:59:57;;;;;;;29.05;18.65;;;;;;;;;;5040463;28;20150;-46
2022/03/07 12:02:23;;;;;;;23.85;16.75;;;;;;;;;;5039975;28;20059;-46
2022/03/07 12:04:49;;;;;;;22.83;15.48;;;;;;;;;;5040423;28;20028;-46
2022/03/07 12:07:25;;;;;;;24.73;15.43;;;;;;;;;;5040734;28;20079;-46
2022/03/07 12:09:51;;;;;;;25.90;16.27;;;;;;;;;;5043956;28;20029;-46
2022/03/07 12:12:21;;;;;;;24.25;15.32;;;;;;;;;;5044679;28;20463;-46
2022/03/07 12:14:47;;;;;;;29.85;17.75;;;;;;;;;;5044337;28;20051;-46
2022/03/07 12:17:17;;;;;;;26.38;17.73;;;;;;;;;;5044539;28;20376;-47
2022/03/07 12:19:44;;;;;;;30.60;17.98;;;;;;;;;;5044304;28;20024;-46
2022/03/07 12:22:19;;;;;;;29.10;17.63;;;;;;;;;;5045338;28;20029;-47
2022/03/07 12:24:46;;;;;;;30.15;18.52;;;;;;;;;;5044108;28;20029;-47
2022/03/07 12:27:12;;;;;;;24.25;16.00;;;;;;;;;;5044252;28;20292;-46
2022/03/07 12:29:43;;;;;;;26.20;16.80;;;;;;;;;;5043970;28;20053;-46
2022/03/07 12:32:10;;;;;;;24.07;15.13;;;;;;;;;;5045311;28;20421;-48
2022/03/07 12:34:39;;;;;;;22.95;15.15;;;;;;;;;;5043863;28;20874;-46
2022/03/07 12:37:18;;;;;;;27.02;14.90;;;;;;;;;;5043726;28;20024;-47
2022/03/07 12:39:44;;;;;;;24.15;14.70;;;;;;;;;;5043925;28;20111;-46
2022/03/07 12:42:11;;;;;;;21.77;14.40;;;;;;;;;;5043928;28;20091;-46
2022/03/07 12:44:40;;;;;;;25.85;15.80;;;;;;;;;;5044103;28;20129;-47
2022/03/07 12:47:06;;;;;;;24.05;15.02;;;;;;;;;;5043681;28;20421;-47
2022/03/07 12:49:33;;;;;;;24.63;14.63;;;;;;;;;;5043659;28;20039;-47
2022/03/07 12:52:06;;;;;;;24.27;15.25;;;;;;;;;;5043675;28;20782;-47
2022/03/07 12:54:34;;;;;;;21.92;15.10;;;;;;;;;;5043696;28;20045;-46
2022/03/07 12:57:00;;;;;;;20.15;14.07;;;;;;;;;;5044976;28;20039;-47
2022/03/07 12:59:27;;;;;;;18.85;12.95;;;;;;;;;;5043629;28;20032;-47
2022/03/07 13:01:54;;;;;;;22.67;13.40;;;;;;;;;;5042474;28;20135;-47
2022/03/07 13:04:22;;;;;;;24.27;14.23;;;;;;;;;;5042036;28;20091;-47
2022/03/07 13:06:50;;;;;;;21.17;14.02;;;;;;;;;;5042821;28;20024;-47
2022/03/07 13:09:20;;;;;;;25.25;16.60;;;;;;;;;;5042043;28;20028;-47
2022/03/07 13:11:53;;;;;;;23.33;15.57;;;;;;;;;;5042253;28;20032;-48
2022/03/07 13:14:22;;;;;;;25.23;15.05;;;;;;;;;;5042803;28;20173;-47
2022/03/07 13:16:48;;;;;;;27.38;17.42;;;;;;;;;;5042075;28;20017;-47
2022/03/07 13:19:15;;;;;;;27.13;18.35;;;;;;;;;;5041592;28;20033;-47
2022/03/07 13:21:45;;;;;;;24.38;17.27;;;;;;;;;;5027240;28;20063;-47
2022/03/07 13:24:15;;;;;;;19.73;14.68;;;;;;;;;;5041988;28;20080;-47
2022/03/07 13:26:41;;;;;;;22.27;14.98;;;;;;;;;;5041524;28;20027;-46
2022/03/07 13:29:15;;;;;;;22.85;15.70;;;;;;;;;;5041983;28;20064;-47
2022/03/07 13:31:51;;;;;;;24.52;15.07;;;;;;;;;;5041726;28;20033;-47
2022/03/07 13:34:19;;;;;;;28.02;16.23;;;;;;;;;;5042736;28;20045;-46
2022/03/07 13:36:47;;;;;;;23.50;15.25;;;;;;;;;;5042948;28;20040;-46
2022/03/07 13:39:17;;;;;;;30.90;17.60;;;;;;;;;;5041973;28;20422;-47
2022/03/07 13:41:50;;;;;;;25.42;16.73;;;;;;;;;;5041501;28;20523;-47
2022/03/07 13:44:17;;;;;;;26.45;16.30;;;;;;;;;;5042778;28;20025;-47
2022/03/07 13:47:12;;;;;;;20.77;14.70;;;;;;;;;;5041690;28;20090;-47
2022/03/07 13:49:42;;;;;;;27.13;16.13;;;;;;;;;;4980506;28;20129;-46
2022/03/07 13:52:15;;;;;;;25.02;16.00;;;;;;;;;;4980330;28;20034;-46
2022/03/07 13:54:42;;;;;;;25.10;15.70;;;;;;;;;;4980257;28;20161;-47
2022/03/07 13:57:11;;;;;;;26.67;15.05;;;;;;;;;;4980294;28;20457;-47
2022/03/07 13:59:37;;;;;;;24.35;15.02;;;;;;;;;;4981665;28;20556;-46
2022/03/07 14:02:13;;;;;;;22.00;14.93;;;;;;;;;;4939537;28;1198763;-46
2022/03/07 14:04:50;;;;;;;22.38;14.68;;;;;;;;;;4981140;28;20621;-46
2022/03/07 14:07:19;;;;;;;21.70;14.13;;;;;;;;;;4981229;28;20185;-46
2022/03/07 14:09:56;;;;;;;49.28;18.35;;;;;;;;;;4980923;28;20045;-48
2022/03/07 14:12:32;;;;;;;28.00;16.67;;;;;;;;;;4981998;28;20030;-46
2022/03/07 14:14:59;;;;;;;26.20;15.90;;;;;;;;;;4982321;28;20133;-46
2022/03/07 14:17:25;;;;;;;37.05;20.83;;;;;;;;;;4980792;28;20019;-46